Time;durP1;ratioP1;P1;durP2;ratioP2;P2;SDS_P1;SDS_P2;PMS_P1;PMS_P2;Temp;Humidity;BMP_temperature;BMP_pressure;BME280_temperature;BME280_humidity;BME280_pressure;Samples;Min_cycle;Max_cycle;Signal;HPM_P1;HPM_P2
2023/06/11 00:05:15;;;;;;;12.60;9.30;;;;;;;15.74;98.36;99109.89;271324;1266;23474;-87
2023/06/11 00:11:17;;;;;;;11.20;9.20;;;;;;;15.72;98.39;99107.08;272030;1265;22354;-89
2023/06/11 00:17:19;;;;;;;9.70;8.50;;;;;;;15.71;98.67;99108.20;273227;1265;22303;-86
2023/06/11 00:23:21;;;;;;;10.40;9.10;;;;;;;15.68;98.81;99101.19;272949;1266;22964;-88
2023/06/11 00:29:30;;;;;;;10.70;8.70;;;;;;;15.66;99.02;99106.16;272677;1271;22567;-87
2023/06/11 00:35:37;;;;;;;9.80;8.80;;;;;;;15.64;99.30;99107.30;270823;1267;22528;-87
2023/06/11 00:41:45;;;;;;;13.90;10.20;;;;;;;15.57;99.67;99108.30;269900;1266;22520;-89
2023/06/11 00:47:50;;;;;;;11.40;10.10;;;;;;;15.51;99.98;99105.98;270025;1266;22620;-87
2023/06/11 00:53:54;;;;;;;11.60;10.20;;;;;;;15.46;100.00;99108.91;270025;1266;22541;-88
2023/06/11 00:59:56;;;;;;;12.10;10.20;;;;;;;15.43;100.00;99115.16;270071;1269;22579;-88
2023/06/11 01:06:07;;;;;;;12.90;10.90;;;;;;;15.41;100.00;99118.58;270491;1263;22432;-87
2023/06/11 01:12:10;;;;;;;12.30;11.00;;;;;;;15.40;100.00;99118.89;271903;1266;22580;-85
2023/06/11 01:18:22;;;;;;;14.30;12.10;;;;;;;15.40;100.00;99117.23;270196;1270;22533;-89
2023/06/11 01:25:04;;;;;;;13.60;11.60;;;;;;;15.41;100.00;99117.86;271069;1265;22536;-88
2023/06/11 01:31:15;;;;;;;14.90;11.50;;;;;;;15.41;100.00;99120.77;269899;1268;22546;-88
2023/06/11 01:37:17;;;;;;;16.50;12.60;;;;;;;15.41;100.00;99118.24;270747;1266;22334;-89
2023/06/11 01:43:25;;;;;;;15.70;13.40;;;;;;;15.41;100.00;99119.90;272649;1263;24199;-86
2023/06/11 01:50:02;;;;;;;13.90;12.40;;;;;;;15.41;100.00;99119.20;270344;1258;22655;-87
2023/06/11 01:56:06;;;;;;;17.60;13.30;;;;;;;15.41;100.00;99117.78;270323;1272;22557;-87
2023/06/11 02:02:08;;;;;;;14.70;13.10;;;;;;;15.40;100.00;99117.15;270237;1268;22528;-87
2023/06/11 02:08:10;;;;;;;16.10;14.00;;;;;;;15.40;100.00;99120.15;270468;1266;22336;-87
2023/06/11 02:14:12;;;;;;;15.40;12.40;;;;;;;15.41;100.00;99119.67;270873;1266;22392;-86
2023/06/11 02:20:15;;;;;;;17.10;14.40;;;;;;;15.43;100.00;99119.42;270288;1265;23958;-87
2023/06/11 02:26:23;;;;;;;15.50;13.80;;;;;;;15.42;100.00;99125.11;269994;1255;22680;-88
2023/06/11 02:32:47;;;;;;;15.60;13.50;;;;;;;15.42;100.00;99124.17;270931;1266;22302;-87
2023/06/11 02:38:49;;;;;;;16.40;13.80;;;;;;;15.42;100.00;99124.94;271430;1265;22539;-88
2023/06/11 02:44:56;;;;;;;13.80;12.30;;;;;;;15.43;100.00;99123.36;270293;1266;23411;-87
2023/06/11 02:51:02;;;;;;;14.30;12.40;;;;;;;15.44;100.00;99130.14;272214;1267;22716;-86
2023/06/11 02:57:05;;;;;;;14.40;12.90;;;;;;;15.43;100.00;99127.62;273928;1266;22308;-87
2023/06/11 03:03:07;;;;;;;14.00;12.40;;;;;;;15.43;100.00;99131.23;273126;1257;23282;-88
2023/06/11 03:09:13;;;;;;;13.40;12.00;;;;;;;15.44;100.00;99136.67;272746;1269;26195;-88
2023/06/11 03:15:15;;;;;;;14.70;12.00;;;;;;;15.46;100.00;99137.06;269994;1267;22540;-88
2023/06/11 03:21:17;;;;;;;15.30;11.70;;;;;;;15.46;100.00;99138.32;270147;1270;22628;-89
2023/06/11 03:27:22;;;;;;;14.50;12.20;;;;;;;15.46;100.00;99137.60;269941;1267;22526;-87
2023/06/11 03:33:24;;;;;;;13.60;11.10;;;;;;;15.46;100.00;99137.13;270628;1266;22810;-87
2023/06/11 03:39:27;;;;;;;15.30;11.90;;;;;;;15.48;100.00;99136.17;273499;1267;22524;-87
2023/06/11 03:45:33;;;;;;;13.60;10.70;;;;;;;15.52;100.00;99136.86;270941;1267;22539;-88
2023/06/11 03:51:35;;;;;;;14.50;11.50;;;;;;;15.55;100.00;99142.12;271527;1272;22557;-87
2023/06/11 03:57:38;;;;;;;14.30;11.40;;;;;;;15.57;100.00;99149.83;271941;1266;22568;-88
2023/06/11 04:04:02;;;;;;;12.10;10.80;;;;;;;15.60;100.00;99157.61;271295;1266;22595;-87
2023/06/11 04:10:11;;;;;;;14.30;11.10;;;;;;;15.63;100.00;99153.02;272262;1270;22542;-87
2023/06/11 04:16:13;;;;;;;13.90;10.90;;;;;;;15.65;100.00;99160.36;270255;1267;22560;-88
2023/06/11 04:22:17;;;;;;;13.80;11.50;;;;;;;15.66;100.00;99170.27;272005;1265;22551;-88
2023/06/11 04:28:27;;;;;;;12.50;9.60;;;;;;;15.68;100.00;99169.64;272731;1266;22964;-88
2023/06/11 04:34:51;;;;;;;14.20;10.40;;;;;;;15.69;100.00;99172.55;271982;1267;23712;-87
2023/06/11 04:40:55;;;;;;;16.40;11.20;;;;;;;15.70;100.00;99176.88;271834;1267;22313;-87
2023/06/11 04:46:57;;;;;;;14.60;11.30;;;;;;;15.70;100.00;99179.16;272058;1269;103662;-87
2023/06/11 04:53:27;;;;;;;13.10;11.50;;;;;;;15.71;100.00;99184.83;272425;1263;23662;-86
2023/06/11 04:59:32;;;;;;;13.80;11.80;;;;;;;15.72;100.00;99192.80;273106;1266;22368;-87
2023/06/11 05:05:34;;;;;;;14.40;12.00;;;;;;;15.72;100.00;99194.67;271874;1266;22192;-87
2023/06/11 05:11:39;;;;;;;13.50;12.00;;;;;;;15.75;100.00;99189.93;270985;1266;22565;-88
2023/06/11 05:17:41;;;;;;;15.70;12.20;;;;;;;15.76;100.00;99187.80;271274;1268;23026;-88
2023/06/11 05:23:44;;;;;;;14.40;12.00;;;;;;;15.83;100.00;99190.90;271874;1267;22567;-89
2023/06/11 05:30:07;;;;;;;13.60;11.90;;;;;;;15.92;100.00;99196.19;273842;1265;22421;-89
2023/06/11 05:36:10;;;;;;;17.00;12.80;;;;;;;15.97;100.00;99198.69;273868;1258;22142;-87
2023/06/11 05:42:15;;;;;;;14.50;12.20;;;;;;;15.98;100.00;99200.34;272327;1266;23770;-88
2023/06/11 05:48:18;;;;;;;14.40;11.40;;;;;;;15.98;100.00;99202.46;270439;1267;23231;-87
2023/06/11 05:54:20;;;;;;;14.20;11.50;;;;;;;15.99;100.00;99210.73;271055;1267;23720;-88
2023/06/11 06:00:24;;;;;;;15.10;11.30;;;;;;;16.02;100.00;99220.18;270589;1267;22651;-87
2023/06/11 06:06:27;;;;;;;11.70;10.40;;;;;;;16.03;100.00;99229.08;270819;1265;22964;-88
2023/06/11 06:12:29;;;;;;;13.20;10.10;;;;;;;16.03;100.00;99233.98;271448;1267;22546;-89
2023/06/11 06:18:33;;;;;;;10.80;9.70;;;;;;;16.01;100.00;99237.23;270370;1266;22651;-86
2023/06/11 06:24:35;;;;;;;12.30;9.60;;;;;;;16.03;100.00;99241.48;270464;1266;22561;-88
2023/06/11 06:30:39;;;;;;;10.20;9.00;;;;;;;16.07;100.00;99244.52;270902;1266;22539;-87
2023/06/11 06:36:42;;;;;;;11.60;9.60;;;;;;;16.15;100.00;99246.52;273306;1265;22573;-87
2023/06/11 06:43:04;;;;;;;11.90;10.10;;;;;;;16.20;100.00;99253.44;272417;1259;24752;-86
2023/06/11 06:49:16;;;;;;;10.30;8.60;;;;;;;16.22;100.00;99256.88;271463;1266;22522;-87
2023/06/11 06:55:18;;;;;;;12.50;9.50;;;;;;;16.24;100.00;99262.55;272148;1265;22524;-88
2023/06/11 07:01:21;;;;;;;16.70;10.40;;;;;;;16.27;100.00;99265.53;270991;1266;22499;-86
2023/06/11 07:07:24;;;;;;;11.30;10.00;;;;;;;16.32;100.00;99271.18;273965;1265;23134;-87
2023/06/11 07:13:27;;;;;;;9.40;8.40;;;;;;;16.42;100.00;99273.80;272602;1265;22853;-88
2023/06/11 07:19:50;;;;;;;12.80;8.90;;;;;;;16.45;100.00;99278.36;273499;1257;22622;-89
2023/06/11 07:26:15;;;;;;;9.50;8.50;;;;;;;16.46;100.00;99279.46;272651;1265;22380;-88
2023/06/11 07:32:18;;;;;;;11.00;8.50;;;;;;;16.47;100.00;99284.98;272150;1265;22555;-88
2023/06/11 07:38:34;;;;;;;10.20;7.80;;;;;;;16.49;100.00;99284.02;272157;1267;22536;-89
2023/06/11 07:44:36;;;;;;;11.90;8.50;;;;;;;16.65;100.00;99283.81;272122;1265;22391;-86
2023/06/11 07:50:38;;;;;;;9.70;8.70;;;;;;;16.74;99.97;99283.80;273575;1265;22406;-86
2023/06/11 07:56:40;;;;;;;13.90;9.00;;;;;;;16.84;99.50;99285.45;270537;1264;22651;-87
2023/06/11 08:02:44;;;;;;;11.40;7.60;;;;;;;16.96;98.93;99280.92;272793;1265;22443;-89
2023/06/11 08:08:47;;;;;;;13.60;7.20;;;;;;;17.18;98.60;99285.83;272225;1269;22539;-88
2023/06/11 08:15:26;;;;;;;9.90;7.60;;;;;;;17.31;98.16;99292.63;271151;1266;25376;-87
2023/06/11 08:21:31;;;;;;;8.00;7.20;;;;;;;17.51;97.55;99293.29;273155;1265;22276;-88
2023/06/11 08:27:33;;;;;;;7.50;6.80;;;;;;;17.67;96.75;99291.11;273057;1257;23114;-87
2023/06/11 08:33:58;;;;;;;10.40;7.50;;;;;;;17.81;95.99;99290.78;272444;1266;23699;-89
2023/06/11 08:40:01;;;;;;;7.40;6.60;;;;;;;18.19;95.22;99293.40;273861;1265;22370;-87
2023/06/11 08:46:03;;;;;;;13.60;6.60;;;;;;;18.55;94.39;99289.60;273889;1265;22201;-86
2023/06/11 08:52:10;;;;;;;11.30;5.60;;;;;;;18.61;92.81;99289.30;270951;1265;23681;-88
2023/06/11 08:58:16;;;;;;;7.00;5.30;;;;;;;18.39;92.31;99288.92;272065;1257;22576;-89
2023/06/11 09:04:37;;;;;;;7.30;5.30;;;;;;;18.48;92.41;99279.80;273087;1265;23493;-89
2023/06/11 09:10:50;;;;;;;8.70;4.90;;;;;;;19.13;91.08;99276.48;272919;1257;22307;-88
2023/06/11 09:16:52;;;;;;;5.50;4.40;;;;;;;19.70;90.38;99274.25;274008;1265;22365;-89
2023/06/11 09:22:55;;;;;;;7.50;5.10;;;;;;;19.79;89.16;99278.42;272823;1255;22507;-88
2023/06/11 09:28:59;;;;;;;7.70;5.00;;;;;;;19.59;88.37;99275.59;274010;1264;22225;-87
2023/06/11 09:35:07;;;;;;;5.70;4.60;;;;;;;19.40;87.96;99273.60;273848;1265;22402;-88
2023/06/11 09:41:16;;;;;;;4.60;4.00;;;;;;;19.32;87.21;99273.70;273849;1266;22935;-88
2023/06/11 09:47:24;;;;;;;6.00;4.30;;;;;;;19.21;86.69;99273.08;273705;1255;22414;-88
2023/06/11 09:53:28;;;;;;;7.70;4.30;;;;;;;19.31;86.15;99271.73;273980;1265;22201;-88
2023/06/11 09:59:32;;;;;;;5.40;4.10;;;;;;;19.61;85.96;99274.61;272514;1265;22496;-87
2023/06/11 10:05:35;;;;;;;5.90;3.90;;;;;;;19.99;85.06;99271.80;273808;1256;23786;-88
2023/06/11 10:11:38;;;;;;;7.70;4.50;;;;;;;20.19;83.73;99276.46;271355;1265;22528;-87
2023/06/11 10:17:51;;;;;;;7.10;4.20;;;;;;;20.57;82.98;99275.05;272322;1265;23103;-87
2023/06/11 10:23:56;;;;;;;6.50;4.50;;;;;;;20.77;79.83;99274.38;272889;1265;22374;-89
2023/06/11 10:29:59;;;;;;;6.10;4.40;;;;;;;20.55;78.97;99278.43;273812;1265;22318;-89
2023/06/11 10:36:02;;;;;;;8.80;4.40;;;;;;;20.36;80.01;99282.42;273824;1265;22608;-87
2023/06/11 10:42:05;;;;;;;6.80;4.40;;;;;;;20.88;79.84;99278.38;272535;1265;22699;-88
2023/06/11 10:48:08;;;;;;;4.80;3.70;;;;;;;21.67;77.07;99275.84;270650;1265;24273;-89
2023/06/11 10:54:54;;;;;;;6.10;3.30;;;;;;;22.07;76.65;99276.16;270760;1265;22526;-87
2023/06/11 11:01:08;;;;;;;5.10;3.40;;;;;;;21.51;75.43;99278.61;270256;1265;22499;-89
2023/06/11 11:07:11;;;;;;;5.70;3.50;;;;;;;21.39;75.61;99273.86;270577;1265;22505;-87
2023/06/11 11:13:18;;;;;;;5.30;3.60;;;;;;;21.84;73.98;99268.60;271353;1265;23795;-90
2023/06/11 11:19:24;;;;;;;3.70;3.30;;;;;;;22.16;73.38;99267.54;270627;1265;22506;-88
2023/06/11 11:25:32;;;;;;;5.60;3.90;;;;;;;22.41;72.12;99266.96;270689;1265;22491;-90
2023/06/11 11:31:34;;;;;;;4.90;3.10;;;;;;;22.76;70.07;99259.59;270279;1252;24015;-88
2023/06/11 11:37:36;;;;;;;4.00;3.00;;;;;;;22.78;69.94;99253.71;271948;1256;22342;-86
2023/06/11 11:43:43;;;;;;;3.90;2.70;;;;;;;22.46;68.54;99253.41;274088;1256;22195;-89
2023/06/11 11:49:54;;;;;;;;;;;;;;;22.90;67.81;99245.46;273099;1265;22494;-86
2023/06/11 11:56:15;;;;;;;5.20;2.20;;;;;;;23.47;66.91;99243.14;272818;1252;75529;-90
2023/06/11 12:02:24;;;;;;;3.20;2.60;;;;;;;23.77;64.81;99245.94;269677;1272;24444;-89
2023/06/11 12:08:46;;;;;;;7.10;3.00;;;;;;;23.54;62.26;99234.00;269543;1272;22537;-87
2023/06/11 12:14:58;;;;;;;3.60;2.80;;;;;;;23.20;62.44;99230.70;269101;1272;22509;-87
2023/06/11 12:28:58;;;;;;;4.30;3.00;;;;;;;22.92;59.72;99221.42;268531;1272;22537;-91
2023/06/11 12:35:24;;;;;;;4.30;2.80;;;;;;;22.93;59.39;99213.93;268777;1272;22506;-88
2023/06/11 12:42:06;;;;;;;9.30;4.00;;;;;;;22.71;59.56;99216.09;270578;1272;23313;-88
2023/06/11 12:48:12;;;;;;;5.70;3.20;;;;;;;22.19;59.55;99223.05;268980;1272;24326;-89
2023/06/11 12:54:23;;;;;;;6.70;3.30;;;;;;;21.88;59.50;99219.74;268858;1272;22554;-90
2023/06/11 13:00:30;;;;;;;6.20;3.30;;;;;;;22.00;59.97;99217.44;269089;1272;23702;-88
2023/06/11 13:06:35;;;;;;;;;;;;;;;22.25;59.62;99213.47;269225;1272;22558;-90
2023/06/11 13:12:41;;;;;;;6.90;3.00;;;;;;;22.49;59.44;99206.30;269312;1272;23865;-88
2023/06/11 13:19:14;;;;;;;5.00;3.40;;;;;;;22.67;58.60;99209.52;269745;1272;22489;-90
2023/06/11 13:25:18;;;;;;;6.90;4.00;;;;;;;22.32;57.85;99212.59;270115;1272;22539;-87
2023/06/11 13:31:24;;;;;;;5.70;3.20;;;;;;;22.15;58.23;99203.60;270528;1272;22933;-87
2023/06/11 13:37:30;;;;;;;4.40;3.30;;;;;;;22.21;58.01;99215.73;272572;1272;22546;-88
2023/06/11 13:43:32;;;;;;;6.60;3.60;;;;;;;22.01;57.75;99213.70;270534;1272;23330;-90
2023/06/11 13:49:38;;;;;;;4.10;3.40;;;;;;;21.98;57.35;99205.18;269480;1272;22626;-89
2023/06/11 13:55:45;;;;;;;6.00;3.10;;;;;;;22.15;57.62;99198.35;269970;1272;22644;-92
2023/06/11 14:01:51;;;;;;;7.30;3.30;;;;;;;22.11;57.36;99194.89;270473;1272;22571;-88
2023/06/11 14:15:44;;;;;;;4.00;3.40;;;;;;;22.26;55.48;99183.48;269759;1272;22844;-87
2023/06/11 14:21:48;;;;;;;5.30;3.40;;;;;;;22.40;55.77;99179.17;269372;1272;22533;-88
2023/06/11 14:28:02;;;;;;;5.80;2.70;;;;;;;22.15;55.26;99193.55;269691;1272;22600;-89
2023/06/11 14:34:05;;;;;;;4.50;3.20;;;;;;;21.94;54.90;99187.08;269143;1272;22571;-89
2023/06/11 14:40:12;;;;;;;6.10;3.30;;;;;;;22.16;55.19;99191.46;270559;1272;22519;-89
2023/06/11 14:46:17;;;;;;;7.10;3.40;;;;;;;22.14;53.98;99196.70;269497;1271;22522;-89
2023/06/11 14:52:23;;;;;;;6.80;3.20;;;;;;;22.03;53.90;99193.64;269196;1272;22546;-88
2023/06/11 14:58:29;;;;;;;3.60;2.70;;;;;;;22.07;53.14;99187.27;269326;1272;22490;-87
2023/06/11 15:04:39;;;;;;;7.10;3.10;;;;;;;22.09;53.11;99180.61;269507;1272;22523;-91
2023/06/11 15:10:45;;;;;;;4.30;3.50;;;;;;;21.98;53.13;99184.65;269554;1271;22563;-88
2023/06/11 15:16:54;;;;;;;6.60;3.10;;;;;;;21.91;52.76;99193.20;269669;1272;22537;-87
2023/06/11 15:23:02;;;;;;;5.30;2.90;;;;;;;21.88;52.47;99185.92;269173;1272;23288;-90
2023/06/11 15:29:10;;;;;;;6.50;3.40;;;;;;;21.89;52.90;99177.12;269392;1271;23967;-88
2023/06/11 15:35:17;;;;;;;3.80;3.20;;;;;;;21.83;52.58;99188.92;269308;1272;22587;-88
2023/06/11 15:41:22;;;;;;;6.90;3.40;;;;;;;21.53;52.93;99190.05;269662;1272;22612;-88
2023/06/11 15:47:32;;;;;;;7.30;3.60;;;;;;;21.27;53.27;99191.29;272601;1261;22572;-88
2023/06/11 15:53:33;;;;;;;;;;;;;;;21.15;53.77;99192.05;272688;1261;83191;-85
2023/06/11 15:59:35;;;;;;;4.30;3.00;;;;;;;21.18;53.92;99198.80;272076;1272;22424;-86
2023/06/11 16:05:38;;;;;;;3.70;3.00;;;;;;;21.16;53.83;99205.84;271386;1272;23190;-86
2023/06/11 16:11:42;;;;;;;5.00;3.10;;;;;;;20.90;54.13;99197.89;270136;1263;23721;-85
2023/06/11 16:17:43;;;;;;;5.60;3.30;;;;;;;20.69;55.11;99192.09;269517;1272;23808;-85
2023/06/11 16:23:46;;;;;;;11.20;2.90;;;;;;;20.73;55.27;99192.94;270047;1272;22264;-85
2023/06/11 16:29:49;;;;;;;8.20;2.90;;;;;;;20.79;55.15;99199.85;270570;1272;22555;-86
2023/06/11 16:35:51;;;;;;;5.10;2.50;;;;;;;20.70;55.41;99203.75;269606;1272;24229;-86
2023/06/11 16:41:52;;;;;;;4.40;2.90;;;;;;;20.59;54.81;99205.56;269500;1271;23215;-85
2023/06/11 16:47:54;;;;;;;5.40;3.30;;;;;;;20.54;54.80;99201.88;271682;1268;163885;-87
2023/06/11 16:53:56;;;;;;;6.10;2.90;;;;;;;20.54;55.22;99210.47;269290;1272;23706;-87
2023/06/11 17:00:00;;;;;;;3.90;2.80;;;;;;;20.49;55.16;99216.30;269566;1272;22521;-87
2023/06/11 17:06:03;;;;;;;5.10;2.80;;;;;;;20.37;55.57;99213.52;269118;1272;23076;-86
2023/06/11 17:12:11;;;;;;;5.20;3.10;;;;;;;20.32;56.28;99220.30;270525;1272;22547;-86
2023/06/11 17:18:13;;;;;;;5.70;3.40;;;;;;;20.32;56.79;99223.88;270403;1270;22199;-87
2023/06/11 17:24:16;;;;;;;4.70;3.00;;;;;;;20.25;56.94;99230.31;271722;1264;22852;-85
2023/06/11 17:30:20;;;;;;;5.90;3.20;;;;;;;20.07;57.51;99243.73;269879;1272;24714;-85
2023/06/11 17:36:26;;;;;;;10.90;3.10;;;;;;;19.87;58.62;99260.55;269609;1265;25243;-86
2023/06/11 17:42:28;;;;;;;5.60;3.40;;;;;;;19.61;59.75;99265.39;270060;1272;22790;-88
2023/06/11 17:48:53;;;;;;;6.10;3.30;;;;;;;19.39;60.59;99265.20;269716;1272;22452;-86
2023/06/11 17:55:12;;;;;;;4.20;3.70;;;;;;;19.21;61.76;99273.23;269081;1272;22132;-86
2023/06/11 18:01:16;;;;;;;4.90;3.50;;;;;;;19.06;62.56;99283.04;269737;1257;22551;-85
2023/06/11 18:07:20;;;;;;;4.10;3.20;;;;;;;18.92;63.12;99290.41;268992;1272;22550;-85
2023/06/11 18:13:22;;;;;;;8.70;3.90;;;;;;;18.76;63.90;99297.04;268642;1262;22557;-85
2023/06/11 18:19:26;;;;;;;5.40;3.50;;;;;;;18.59;64.41;99301.13;269373;1272;25388;-86
2023/06/11 18:25:28;;;;;;;7.00;3.70;;;;;;;18.45;64.86;99310.78;269445;1261;22620;-87
2023/06/11 18:31:30;;;;;;;5.10;3.50;;;;;;;18.32;65.44;99315.08;269346;1272;22645;-89
2023/06/11 18:37:32;;;;;;;6.00;3.60;;;;;;;18.20;65.90;99315.73;269549;1272;22717;-87
2023/06/11 18:43:34;;;;;;;8.30;3.70;;;;;;;18.05;66.16;99320.67;269382;1272;23887;-87
2023/06/11 18:49:37;;;;;;;10.70;3.70;;;;;;;17.93;66.78;99320.05;269614;1262;23802;-86
2023/06/11 18:55:40;;;;;;;9.00;3.60;;;;;;;17.79;67.17;99323.80;269727;1258;22425;-86
2023/06/11 19:01:43;;;;;;;4.60;3.40;;;;;;;17.66;67.47;99330.61;271999;1272;25252;-87
2023/06/11 19:07:47;;;;;;;5.20;3.40;;;;;;;17.53;67.82;99337.73;269502;1272;22547;-87
2023/06/11 19:13:50;;;;;;;7.20;3.20;;;;;;;17.41;68.21;99342.66;269717;1270;22545;-87
2023/06/11 19:19:52;;;;;;;4.40;3.20;;;;;;;17.27;68.59;99343.35;269745;1269;22538;-87
2023/06/11 19:25:56;;;;;;;3.90;3.10;;;;;;;17.14;68.93;99348.85;270125;1265;23020;-86
2023/06/11 19:31:58;;;;;;;5.90;3.50;;;;;;;17.02;69.31;99351.34;269608;1272;25298;-85
2023/06/11 19:38:01;;;;;;;4.70;3.40;;;;;;;16.89;69.86;99360.14;270516;1272;22543;-84
2023/06/11 19:44:03;;;;;;;5.10;4.00;;;;;;;16.75;70.17;99363.65;271399;1272;22203;-87
2023/06/11 19:50:08;;;;;;;5.00;3.50;;;;;;;16.61;70.39;99368.42;272460;1274;22546;-87
2023/06/11 19:56:14;;;;;;;7.20;4.60;;;;;;;16.48;70.85;99373.08;271117;1269;22646;-86
2023/06/11 20:02:18;;;;;;;7.10;4.00;;;;;;;16.38;71.28;99374.14;269765;1271;22563;-85
2023/06/11 20:08:21;;;;;;;4.50;3.50;;;;;;;16.28;71.88;99369.15;270184;1272;22567;-87
2023/06/11 20:14:24;;;;;;;7.50;3.90;;;;;;;16.18;72.31;99375.37;269921;1272;22531;-86
2023/06/11 20:20:26;;;;;;;5.90;4.10;;;;;;;16.07;72.79;99380.79;269028;1272;24249;-85
2023/06/11 20:26:29;;;;;;;8.40;4.10;;;;;;;15.97;73.12;99386.83;270422;1265;22586;-86
2023/06/11 20:32:31;;;;;;;6.60;4.00;;;;;;;15.88;73.64;99385.36;271936;1271;22668;-86
2023/06/11 20:38:33;;;;;;;6.80;4.60;;;;;;;15.80;74.02;99385.23;269726;1262;25240;-86
2023/06/11 20:44:35;;;;;;;5.80;4.40;;;;;;;15.73;74.58;99384.09;270039;1272;22851;-86
2023/06/11 20:50:46;;;;;;;4.80;4.10;;;;;;;15.63;75.21;99388.29;270400;1272;22558;-85
2023/06/11 20:56:52;;;;;;;7.10;4.10;;;;;;;15.51;75.74;99390.61;269525;1265;22668;-86
2023/06/11 21:02:56;;;;;;;6.90;4.40;;;;;;;15.40;76.33;99393.46;270304;1272;23329;-85
2023/06/11 21:09:02;;;;;;;7.10;4.20;;;;;;;15.27;76.75;99393.63;269473;1272;22590;-85
2023/06/11 21:15:04;;;;;;;7.00;4.50;;;;;;;15.14;77.16;99393.48;269565;1271;23462;-84
2023/06/11 21:21:07;;;;;;;8.00;4.40;;;;;;;15.02;77.69;99395.46;269702;1272;22429;-86
2023/06/11 21:27:11;;;;;;;6.50;4.60;;;;;;;14.91;78.15;99391.60;270626;1272;22642;-86
2023/06/11 21:33:13;;;;;;;5.40;4.70;;;;;;;14.79;78.65;99397.73;272321;1256;24852;-86
2023/06/11 21:39:21;;;;;;;6.20;4.20;;;;;;;14.68;79.15;99398.20;271064;1272;22555;-87
2023/06/11 21:45:22;;;;;;;7.30;5.00;;;;;;;14.57;79.75;99401.26;269826;1272;23784;-85
2023/06/11 21:51:27;;;;;;;7.20;4.20;;;;;;;14.46;80.35;99405.17;269063;1272;23700;-84
2023/06/11 21:57:28;;;;;;;6.10;5.10;;;;;;;14.33;80.83;99403.10;269882;1262;22709;-87
2023/06/11 22:03:31;;;;;;;6.90;4.80;;;;;;;14.25;81.41;99398.67;271110;1272;22414;-85
2023/06/11 22:09:33;;;;;;;8.00;5.30;;;;;;;14.25;81.99;99396.46;270074;1262;23303;-85
2023/06/11 22:15:35;;;;;;;7.00;5.40;;;;;;;14.27;82.45;99396.32;269742;1272;22573;-87
2023/06/11 22:21:37;;;;;;;6.20;4.80;;;;;;;14.29;82.89;99391.45;269460;1261;22550;-86
2023/06/11 22:28:09;;;;;;;8.90;5.00;;;;;;;14.25;83.20;99385.38;269243;1263;22220;-86
2023/06/11 22:34:12;;;;;;;8.70;5.20;;;;;;;14.17;83.56;99384.08;269427;1260;22545;-86
2023/06/11 22:40:15;;;;;;;10.60;6.10;;;;;;;14.12;83.88;99381.22;269647;1272;22561;-85
2023/06/11 22:46:17;;;;;;;7.40;5.20;;;;;;;14.03;84.48;99380.24;270623;1272;22466;-84
2023/06/11 22:52:22;;;;;;;12.30;5.80;;;;;;;13.90;84.79;99376.59;272442;1272;22529;-85
2023/06/11 22:58:23;;;;;;;7.50;5.90;;;;;;;13.79;85.16;99374.49;270954;1272;22205;-84
2023/06/11 23:04:25;;;;;;;7.80;6.10;;;;;;;13.71;85.47;99376.34;271270;1272;23336;-85
2023/06/11 23:10:27;;;;;;;9.40;5.70;;;;;;;13.63;85.81;99368.92;268786;1272;23784;-85
2023/06/11 23:16:30;;;;;;;7.80;5.40;;;;;;;13.52;86.09;99365.95;269395;1272;24171;-85
2023/06/11 23:22:34;;;;;;;6.20;5.40;;;;;;;13.38;86.47;99364.79;269119;1272;22550;-85
2023/06/11 23:28:36;;;;;;;6.60;5.40;;;;;;;13.25;86.99;99369.17;269175;1266;22665;-85
2023/06/11 23:35:02;;;;;;;7.70;5.60;;;;;;;13.10;87.42;99360.43;268924;1272;24014;-86
2023/06/11 23:41:07;;;;;;;7.40;5.00;;;;;;;12.97;87.86;99359.14;268780;1272;22617;-85
2023/06/11 23:47:09;;;;;;;9.70;5.70;;;;;;;12.85;88.35;99355.20;268658;1272;22605;-85
2023/06/11 23:53:10;;;;;;;10.70;6.30;;;;;;;12.75;88.80;99354.17;268755;1272;22564;-84
2023/06/11 23:59:12;;;;;;;10.60;5.90;;;;;;;12.65;89.39;99357.01;269323;1272;24230;-85
